sensor_id;sensor_type;location;lat;lon;timestamp;pressure;altitude;pressure_sealevel;temperature;humidity
36726;BME280;44936;52.086;5.150;2023-07-13T00:01:51;102013.44;;;17.45;100.00
36726;BME280;44936;52.086;5.150;2023-07-13T00:04:20;102052.25;;;17.60;100.00
36726;BME280;44936;52.086;5.150;2023-07-13T00:06:48;102058.41;;;17.62;100.00
36726;BME280;44936;52.086;5.150;2023-07-13T00:09:15;102047.78;;;17.62;100.00
36726;BME280;44936;52.086;5.150;2023-07-13T00:11:42;101998.44;;;17.37;100.00
36726;BME280;44936;52.086;5.150;2023-07-13T00:14:08;102051.31;;;17.67;100.00
36726;BME280;44936;52.086;5.150;2023-07-13T00:16:36;102054.84;;;17.68;100.00
36726;BME280;44936;52.086;5.150;2023-07-13T00:19:02;101983.47;;;17.28;100.00
36726;BME280;44936;52.086;5.150;2023-07-13T00:21:28;102049.59;;;17.59;100.00
36726;BME280;44936;52.086;5.150;2023-07-13T00:23:53;102027.53;;;17.47;100.00
36726;BME280;44936;52.086;5.150;2023-07-13T00:26:19;102049.66;;;17.48;100.00
36726;BME280;44936;52.086;5.150;2023-07-13T00:28:45;102060.31;;;17.42;100.00
36726;BME280;44936;52.086;5.150;2023-07-13T00:31:12;102044.47;;;17.30;100.00
36726;BME280;44936;52.086;5.150;2023-07-13T00:33:40;102061.19;;;17.44;100.00
36726;BME280;44936;52.086;5.150;2023-07-13T00:36:05;102061.19;;;17.44;100.00
36726;BME280;44936;52.086;5.150;2023-07-13T00:38:31;102046.22;;;17.34;100.00
36726;BME280;44936;52.086;5.150;2023-07-13T00:40:56;102024.19;;;17.18;100.00
36726;BME280;44936;52.086;5.150;2023-07-13T00:43:25;102052.38;;;17.36;100.00
36726;BME280;44936;52.086;5.150;2023-07-13T00:48:20;102056.88;;;17.20;100.00
36726;BME280;44936;52.086;5.150;2023-07-13T00:50:48;102050.69;;;17.22;100.00
36726;BME280;44936;52.086;5.150;2023-07-13T00:53:19;102023.34;;;17.11;100.00
36726;BME280;44936;52.086;5.150;2023-07-13T00:55:46;102029.50;;;17.19;100.00
36726;BME280;44936;52.086;5.150;2023-07-13T00:58:14;102035.69;;;17.18;100.00
36726;BME280;44936;52.086;5.150;2023-07-13T01:00:41;102050.69;;;17.24;100.00
36726;BME280;44936;52.086;5.150;2023-07-13T01:03:09;102057.72;;;17.28;100.00
36726;BME280;44936;52.086;5.150;2023-07-13T01:05:35;102009.31;;;16.91;100.00
36726;BME280;44936;52.086;5.150;2023-07-13T01:08:02;102064.84;;;17.18;100.00
36726;BME280;44936;52.086;5.150;2023-07-13T01:10:30;102012.91;;;16.81;100.00
36726;BME280;44936;52.086;5.150;2023-07-13T01:13:02;102056.94;;;17.15;100.00
36726;BME280;44936;52.086;5.150;2023-07-13T01:15:48;102063.97;;;17.13;100.00
36726;BME280;44936;52.086;5.150;2023-07-13T01:18:18;102017.34;;;16.71;100.00
36726;BME280;44936;52.086;5.150;2023-07-13T01:21:00;102069.34;;;17.06;100.00
36726;BME280;44936;52.086;5.150;2023-07-13T01:23:26;102043.78;;;16.91;100.00
36726;BME280;44936;52.086;5.150;2023-07-13T01:25:53;102008.50;;;16.66;100.00
36726;BME280;44936;52.086;5.150;2023-07-13T01:28:21;102060.50;;;17.02;100.00
36726;BME280;44936;52.086;5.150;2023-07-13T01:30:47;102050.81;;;16.98;100.00
36726;BME280;44936;52.086;5.150;2023-07-13T01:33:14;102057.84;;;17.02;100.00
36726;BME280;44936;52.086;5.150;2023-07-13T01:35:42;102064.06;;;16.99;100.00
36726;BME280;44936;52.086;5.150;2023-07-13T01:38:08;102059.66;;;16.97;100.00
36726;BME280;44936;52.086;5.150;2023-07-13T01:40:35;102049.06;;;16.92;100.00
36726;BME280;44936;52.086;5.150;2023-07-13T01:43:01;102062.31;;;16.97;100.00
36726;BME280;44936;52.086;5.150;2023-07-13T01:45:30;102065.84;;;16.94;100.00
36726;BME280;44936;52.086;5.150;2023-07-13T01:47:56;102056.16;;;16.87;100.00
36726;BME280;44936;52.086;5.150;2023-07-13T01:50:23;102031.47;;;16.79;100.00
36726;BME280;44936;52.086;5.150;2023-07-13T01:52:48;102028.81;;;16.75;100.00
36726;BME280;44936;52.086;5.150;2023-07-13T01:55:14;102039.41;;;16.81;100.00
36726;BME280;44936;52.086;5.150;2023-07-13T01:57:39;102058.81;;;16.87;100.00
36726;BME280;44936;52.086;5.150;2023-07-13T02:00:09;102032.34;;;16.74;100.00
36726;BME280;44936;52.086;5.150;2023-07-13T02:02:35;102076.44;;;16.91;100.00
36726;BME280;44936;52.086;5.150;2023-07-13T02:05:00;102037.66;;;16.64;100.00
36726;BME280;44936;52.086;5.150;2023-07-13T02:07:26;102026.19;;;16.55;100.00
36726;BME280;44936;52.086;5.150;2023-07-13T02:09:51;102038.53;;;16.63;100.00
36726;BME280;44936;52.086;5.150;2023-07-13T02:12:17;102062.38;;;16.76;100.00
36726;BME280;44936;52.086;5.150;2023-07-13T02:14:42;102016.50;;;16.49;100.00
36726;BME280;44936;52.086;5.150;2023-07-13T02:17:09;102073.84;;;16.79;100.00
36726;BME280;44936;52.086;5.150;2023-07-13T02:19:35;102075.63;;;16.79;100.00
36726;BME280;44936;52.086;5.150;2023-07-13T02:22:00;102069.47;;;16.61;100.00
36726;BME280;44936;52.086;5.150;2023-07-13T02:24:25;102029.75;;;16.45;100.00
36726;BME280;44936;52.086;5.150;2023-07-13T02:26:52;102047.38;;;16.56;100.00
36726;BME280;44936;52.086;5.150;2023-07-13T02:29:17;102041.22;;;16.54;100.00
36726;BME280;44936;52.086;5.150;2023-07-13T02:31:42;102065.03;;;16.65;100.00
36726;BME280;44936;52.086;5.150;2023-07-13T02:34:08;102070.31;;;16.65;100.00
36726;BME280;44936;52.086;5.150;2023-07-13T02:36:34;102061.50;;;16.64;100.00
36726;BME280;44936;52.086;5.150;2023-07-13T02:39:04;102062.34;;;16.66;100.00
36726;BME280;44936;52.086;5.150;2023-07-13T02:41:30;102057.94;;;16.67;100.00
36726;BME280;44936;52.086;5.150;2023-07-13T02:43:57;102071.19;;;16.65;100.00
36726;BME280;44936;52.086;5.150;2023-07-13T02:46:28;102072.94;;;16.66;100.00
36726;BME280;44936;52.086;5.150;2023-07-13T02:48:54;102053.53;;;16.64;100.00
36726;BME280;44936;52.086;5.150;2023-07-13T02:51:20;102041.19;;;16.57;100.00
36726;BME280;44936;52.086;5.150;2023-07-13T02:53:45;102036.78;;;16.55;100.00
36726;BME280;44936;52.086;5.150;2023-07-13T02:56:11;102057.94;;;16.65;100.00
36726;BME280;44936;52.086;5.150;2023-07-13T02:58:36;102067.66;;;16.66;100.00
36726;BME280;44936;52.086;5.150;2023-07-13T03:01:08;102038.56;;;16.53;100.00
36726;BME280;44936;52.086;5.150;2023-07-13T03:03:34;102054.44;;;16.63;100.00
36726;BME280;44936;52.086;5.150;2023-07-13T03:06:01;102065.94;;;16.61;100.00
36726;BME280;44936;52.086;5.150;2023-07-13T03:08:28;102012.16;;;16.18;100.00
36726;BME280;44936;52.086;5.150;2023-07-13T03:11:05;102051.81;;;16.48;100.00
36726;BME280;44936;52.086;5.150;2023-07-13T03:13:34;102050.06;;;16.38;100.00
36726;BME280;44936;52.086;5.150;2023-07-13T03:16:00;102073.88;;;16.49;100.00
36726;BME280;44936;52.086;5.150;2023-07-13T03:18:27;102081.81;;;16.52;100.00
36726;BME280;44936;52.086;5.150;2023-07-13T03:20:53;102057.09;;;16.51;100.00
36726;BME280;44936;52.086;5.150;2023-07-13T03:23:21;102043.88;;;16.45;100.00
36726;BME280;44936;52.086;5.150;2023-07-13T03:25:47;102072.09;;;16.55;100.00
36726;BME280;44936;52.086;5.150;2023-07-13T03:28:14;102058.88;;;16.43;100.00
36726;BME280;44936;52.086;5.150;2023-07-13T03:30:40;102084.47;;;16.61;100.00
36726;BME280;44936;52.086;5.150;2023-07-13T03:33:05;102080.91;;;16.60;100.00
36726;BME280;44936;52.086;5.150;2023-07-13T03:35:31;102038.59;;;16.31;100.00
36726;BME280;44936;52.086;5.150;2023-07-13T03:37:58;102080.94;;;16.53;100.00
36726;BME280;44936;52.086;5.150;2023-07-13T03:40:24;102020.06;;;16.25;100.00
36726;BME280;44936;52.086;5.150;2023-07-13T03:42:51;102081.84;;;16.47;100.00
36726;BME280;44936;52.086;5.150;2023-07-13T03:45:16;102097.69;;;16.50;100.00
36726;BME280;44936;52.086;5.150;2023-07-13T03:47:42;102085.34;;;16.43;100.00
36726;BME280;44936;52.086;5.150;2023-07-13T03:50:08;102047.44;;;16.29;100.00
36726;BME280;44936;52.086;5.150;2023-07-13T03:52:33;102090.66;;;16.48;100.00
36726;BME280;44936;52.086;5.150;2023-07-13T03:54:59;102034.19;;;16.17;100.00
36726;BME280;44936;52.086;5.150;2023-07-13T03:57:25;102080.97;;;16.45;100.00
36726;BME280;44936;52.086;5.150;2023-07-13T03:59:51;102051.84;;;16.21;100.00
36726;BME280;44936;52.086;5.150;2023-07-13T04:02:17;102085.38;;;16.40;100.00
36726;BME280;44936;52.086;5.150;2023-07-13T04:04:43;102051.84;;;16.24;100.00
36726;BME280;44936;52.086;5.150;2023-07-13T04:07:08;102051.84;;;16.07;100.00
36726;BME280;44936;52.086;5.150;2023-07-13T04:09:35;102081.84;;;16.35;100.00
36726;BME280;44936;52.086;5.150;2023-07-13T04:12:01;102046.56;;;16.21;100.00
36726;BME280;44936;52.086;5.150;2023-07-13T04:14:26;102067.72;;;16.37;100.00
36726;BME280;44936;52.086;5.150;2023-07-13T04:16:52;102035.97;;;16.21;100.00
36726;BME280;44936;52.086;5.150;2023-07-13T04:19:20;102057.13;;;16.30;100.00
36726;BME280;44936;52.086;5.150;2023-07-13T04:21:46;102050.09;;;16.23;100.00
36726;BME280;44936;52.086;5.150;2023-07-13T04:24:14;102077.41;;;16.46;100.00
36726;BME280;44936;52.086;5.150;2023-07-13T04:26:40;102078.31;;;16.40;100.00
36726;BME280;44936;52.086;5.150;2023-07-13T04:29:07;102049.19;;;16.25;100.00
36726;BME280;44936;52.086;5.150;2023-07-13T04:31:32;102092.41;;;16.49;100.00
36726;BME280;44936;52.086;5.150;2023-07-13T04:33:58;102030.69;;;16.08;100.00
36726;BME280;44936;52.086;5.150;2023-07-13T04:36:24;102088.00;;;16.52;100.00
36726;BME280;44936;52.086;5.150;2023-07-13T04:38:52;102094.19;;;16.42;100.00
36726;BME280;44936;52.086;5.150;2023-07-13T04:41:20;102084.44;;;16.52;100.00
36726;BME280;44936;52.086;5.150;2023-07-13T04:43:46;102083.56;;;16.51;100.00
36726;BME280;44936;52.086;5.150;2023-07-13T04:46:15;102085.34;;;16.58;100.00
36726;BME280;44936;52.086;5.150;2023-07-13T04:48:42;102083.59;;;16.54;100.00
36726;BME280;44936;52.086;5.150;2023-07-13T04:51:08;102092.41;;;16.56;100.00
36726;BME280;44936;52.086;5.150;2023-07-13T04:53:34;102063.31;;;16.44;100.00
36726;BME280;44936;52.086;5.150;2023-07-13T04:56:00;102055.34;;;16.41;100.00
36726;BME280;44936;52.086;5.150;2023-07-13T05:01:36;102078.25;;;16.77;100.00
36726;BME280;44936;52.086;5.150;2023-07-13T05:04:04;102084.44;;;16.81;100.00
36726;BME280;44936;52.086;5.150;2023-07-13T05:06:30;102077.41;;;16.72;100.00
36726;BME280;44936;52.086;5.150;2023-07-13T05:08:56;102098.59;;;16.80;100.00
36726;BME280;44936;52.086;5.150;2023-07-13T05:11:22;102097.69;;;16.76;100.00
36726;BME280;44936;52.086;5.150;2023-07-13T05:13:47;102085.34;;;16.70;100.00
36726;BME280;44936;52.086;5.150;2023-07-13T05:16:13;102117.97;;;16.92;100.00
36726;BME280;44936;52.086;5.150;2023-07-13T05:18:38;102089.72;;;16.90;100.00
36726;BME280;44936;52.086;5.150;2023-07-13T05:21:06;102095.88;;;16.92;100.00
36726;BME280;44936;52.086;5.150;2023-07-13T05:23:35;102126.75;;;17.10;100.00
36726;BME280;44936;52.086;5.150;2023-07-13T05:26:02;102076.50;;;16.79;100.00
36726;BME280;44936;52.086;5.150;2023-07-13T05:28:29;102128.50;;;17.05;100.00
36726;BME280;44936;52.086;5.150;2023-07-13T05:30:55;102140.00;;;17.14;100.00
36726;BME280;44936;52.086;5.150;2023-07-13T05:33:21;102139.06;;;17.20;100.00
36726;BME280;44936;52.086;5.150;2023-07-13T05:35:46;102151.47;;;17.13;100.00
36726;BME280;44936;52.086;5.150;2023-07-13T05:38:12;102138.22;;;17.16;100.00
36726;BME280;44936;52.086;5.150;2023-07-13T05:40:38;102145.25;;;17.25;100.00
36726;BME280;44936;52.086;5.150;2023-07-13T05:43:03;102152.34;;;17.24;100.00
36726;BME280;44936;52.086;5.150;2023-07-13T05:45:29;102132.88;;;17.22;100.00
36726;BME280;44936;52.086;5.150;2023-07-13T05:47:55;102170.84;;;17.41;100.00
36726;BME280;44936;52.086;5.150;2023-07-13T05:50:20;102169.03;;;17.49;100.00
36726;BME280;44936;52.086;5.150;2023-07-13T05:52:46;102174.31;;;17.51;100.00
36726;BME280;44936;52.086;5.150;2023-07-13T05:55:13;102185.81;;;17.53;100.00
36726;BME280;44936;52.086;5.150;2023-07-13T05:57:39;102193.75;;;17.53;100.00
36726;BME280;44936;52.086;5.150;2023-07-13T06:00:05;102191.97;;;17.56;100.00
36726;BME280;44936;52.086;5.150;2023-07-13T06:02:30;102181.38;;;17.58;100.00
36726;BME280;44936;52.086;5.150;2023-07-13T06:04:56;102191.94;;;17.72;100.00
36726;BME280;44936;52.086;5.150;2023-07-13T06:07:23;102182.31;;;17.43;100.00
36726;BME280;44936;52.086;5.150;2023-07-13T06:09:48;102205.25;;;17.58;100.00
36726;BME280;44936;52.086;5.150;2023-07-13T06:12:14;102216.69;;;17.66;100.00
36726;BME280;44936;52.086;5.150;2023-07-13T06:14:39;102228.22;;;17.70;100.00
36726;BME280;44936;52.086;5.150;2023-07-13T06:17:05;102244.09;;;17.74;100.00
36726;BME280;44936;52.086;5.150;2023-07-13T06:19:31;102226.44;;;17.76;100.00
36726;BME280;44936;52.086;5.150;2023-07-13T06:21:56;102229.97;;;17.69;100.00
36726;BME280;44936;52.086;5.150;2023-07-13T06:24:25;102237.88;;;17.81;100.00
36726;BME280;44936;52.086;5.150;2023-07-13T06:26:51;102231.66;;;17.84;100.00
36726;BME280;44936;52.086;5.150;2023-07-13T06:29:16;102224.63;;;17.85;100.00
36726;BME280;44936;52.086;5.150;2023-07-13T06:31:43;102244.94;;;17.89;100.00
36726;BME280;44936;52.086;5.150;2023-07-13T06:34:09;102224.66;;;17.72;100.00
36726;BME280;44936;52.086;5.150;2023-07-13T06:36:34;102262.59;;;17.93;100.00
36726;BME280;44936;52.086;5.150;2023-07-13T06:39:01;102239.63;;;17.90;100.00
36726;BME280;44936;52.086;5.150;2023-07-13T06:41:27;102240.50;;;17.91;100.00
36726;BME280;44936;52.086;5.150;2023-07-13T06:43:53;102245.75;;;18.04;100.00
36726;BME280;44936;52.086;5.150;2023-07-13T06:46:21;102245.69;;;18.12;100.00
36726;BME280;44936;52.086;5.150;2023-07-13T06:48:50;102255.38;;;18.18;100.00
36726;BME280;44936;52.086;5.150;2023-07-13T06:51:15;102257.16;;;18.22;100.00
36726;BME280;44936;52.086;5.150;2023-07-13T06:53:41;102255.34;;;18.30;100.00
36726;BME280;44936;52.086;5.150;2023-07-13T06:56:07;102254.44;;;18.29;100.00
36726;BME280;44936;52.086;5.150;2023-07-13T06:58:35;102272.16;;;18.30;100.00
36726;BME280;44936;52.086;5.150;2023-07-13T07:01:01;102262.41;;;18.31;100.00
36726;BME280;44936;52.086;5.150;2023-07-13T07:03:26;102266.88;;;18.24;100.00
36726;BME280;44936;52.086;5.150;2023-07-13T07:05:53;102257.19;;;18.14;100.00
36726;BME280;44936;52.086;5.150;2023-07-13T07:08:19;102273.19;;;18.05;100.00
36726;BME280;44936;52.086;5.150;2023-07-13T07:10:45;102264.31;;;18.01;100.00
36726;BME280;44936;52.086;5.150;2023-07-13T07:13:14;102253.75;;;17.92;100.00
36726;BME280;44936;52.086;5.150;2023-07-13T07:15:58;102251.13;;;17.88;100.00
36726;BME280;44936;52.086;5.150;2023-07-13T07:18:25;102212.31;;;17.59;100.00
36726;BME280;44936;52.086;5.150;2023-07-13T07:20:50;102214.06;;;17.63;100.00
36726;BME280;44936;52.086;5.150;2023-07-13T07:23:17;102202.56;;;17.61;100.00
36726;BME280;44936;52.086;5.150;2023-07-13T07:25:43;102193.69;;;17.67;100.00
36726;BME280;44936;52.086;5.150;2023-07-13T07:28:11;102210.44;;;17.84;100.00
36726;BME280;44936;52.086;5.150;2023-07-13T07:30:42;102165.41;;;17.63;100.00
36726;BME280;44936;52.086;5.150;2023-07-13T07:33:10;102159.22;;;17.62;100.00
36726;BME280;44936;52.086;5.150;2023-07-13T07:35:36;102138.06;;;17.53;100.00
36726;BME280;44936;52.086;5.150;2023-07-13T07:38:01;102153.91;;;17.62;100.00
36726;BME280;44936;52.086;5.150;2023-07-13T07:40:27;102172.47;;;17.77;100.00
36726;BME280;44936;52.086;5.150;2023-07-13T07:43:14;102151.22;;;17.74;100.00
36726;BME280;44936;52.086;5.150;2023-07-13T07:46:24;102174.13;;;17.94;100.00
36726;BME280;44936;52.086;5.150;2023-07-13T07:48:49;102150.31;;;17.81;100.00
36726;BME280;44936;52.086;5.150;2023-07-13T07:51:18;102179.34;;;18.07;100.00
36726;BME280;44936;52.086;5.150;2023-07-13T07:53:43;102178.44;;;18.13;100.00
36726;BME280;44936;52.086;5.150;2023-07-13T07:56:09;102183.75;;;18.11;100.00
36726;BME280;44936;52.086;5.150;2023-07-13T07:58:35;102173.19;;;17.99;100.00
36726;BME280;44936;52.086;5.150;2023-07-13T08:01:05;102188.16;;;18.13;100.00
36726;BME280;44936;52.086;5.150;2023-07-13T08:03:34;102225.25;;;18.23;100.00
36726;BME280;44936;52.086;5.150;2023-07-13T08:09:24;102164.28;;;18.08;100.00
36726;BME280;44936;52.086;5.150;2023-07-13T08:11:49;102227.81;;;18.38;100.00
36726;BME280;44936;52.086;5.150;2023-07-13T08:14:16;102239.22;;;18.53;100.00
36726;BME280;44936;52.086;5.150;2023-07-13T08:16:44;102246.34;;;18.49;100.00
36726;BME280;44936;52.086;5.150;2023-07-13T08:19:11;102264.06;;;18.44;100.00
36726;BME280;44936;52.086;5.150;2023-07-13T08:21:39;102289.72;;;18.50;100.00
36726;BME280;44936;52.086;5.150;2023-07-13T08:24:49;102300.38;;;18.44;100.00
36726;BME280;44936;52.086;5.150;2023-07-13T08:27:25;102301.38;;;18.26;100.00
36726;BME280;44936;52.086;5.150;2023-07-13T08:29:52;102324.44;;;18.22;100.00
36726;BME280;44936;52.086;5.150;2023-07-13T08:32:18;102344.00;;;18.03;100.00
36726;BME280;44936;52.086;5.150;2023-07-13T08:34:47;102359.13;;;17.61;100.00
36726;BME280;44936;52.086;5.150;2023-07-13T08:37:14;102353.81;;;17.58;100.00
36726;BME280;44936;52.086;5.150;2023-07-13T08:39:42;102359.13;;;17.52;100.00
36726;BME280;44936;52.086;5.150;2023-07-13T08:48:02;102331.75;;;17.41;100.00
36726;BME280;44936;52.086;5.150;2023-07-13T08:51:50;102315.81;;;17.45;100.00
36726;BME280;44936;52.086;5.150;2023-07-13T08:53:48;102285.75;;;17.42;100.00
36726;BME280;44936;52.086;5.150;2023-07-13T08:59:31;102296.25;;;17.83;100.00
36726;BME280;44936;52.086;5.150;2023-07-13T09:02:20;102301.56;;;17.88;100.00
36726;BME280;44936;52.086;5.150;2023-07-13T09:07:50;102313.03;;;17.97;100.00
36726;BME280;44936;52.086;5.150;2023-07-13T09:10:28;102312.03;;;18.18;100.00
36726;BME280;44936;52.086;5.150;2023-07-13T09:15:54;102282.66;;;18.49;100.00
36726;BME280;44936;52.086;5.150;2023-07-13T09:18:27;102301.94;;;18.78;100.00
36726;BME280;44936;52.086;5.150;2023-07-13T09:21:05;102296.44;;;19.03;100.00
36726;BME280;44936;52.086;5.150;2023-07-13T09:23:53;102294.56;;;19.14;100.00
36726;BME280;44936;52.086;5.150;2023-07-13T09:26:23;102297.97;;;19.28;100.00
36726;BME280;44936;52.086;5.150;2023-07-13T09:28:55;102319.34;;;19.19;100.00
36726;BME280;44936;52.086;5.150;2023-07-13T09:31:45;102372.56;;;19.14;100.00
36726;BME280;44936;52.086;5.150;2023-07-13T09:34:40;102410.97;;;18.63;100.00
36726;BME280;44936;52.086;5.150;2023-07-13T09:37:07;102399.56;;;18.43;100.00
36726;BME280;44936;52.086;5.150;2023-07-13T09:39:35;102375.78;;;18.10;100.00
36726;BME280;44936;52.086;5.150;2023-07-13T09:44:58;102377.59;;;18.01;100.00
36726;BME280;44936;52.086;5.150;2023-07-13T09:47:25;102368.81;;;17.85;100.00
36726;BME280;44936;52.086;5.150;2023-07-13T09:50:15;102367.03;;;17.90;100.00
36726;BME280;44936;52.086;5.150;2023-07-13T09:52:45;102350.22;;;17.90;100.00
36726;BME280;44936;52.086;5.150;2023-07-13T09:55:27;102335.16;;;18.02;100.00
36726;BME280;44936;52.086;5.150;2023-07-13T09:57:54;102339.53;;;18.11;100.00
36726;BME280;44936;52.086;5.150;2023-07-13T10:00:29;102333.22;;;18.33;100.00
36726;BME280;44936;52.086;5.150;2023-07-13T10:05:24;102331.31;;;18.52;100.00
36726;BME280;44936;52.086;5.150;2023-07-13T10:07:51;102339.25;;;18.66;100.00
36726;BME280;44936;52.086;5.150;2023-07-13T10:10:21;102331.19;;;18.77;100.00
36726;BME280;44936;52.086;5.150;2023-07-13T10:13:03;102353.19;;;19.02;100.00
36726;BME280;44936;52.086;5.150;2023-07-13T10:15:31;102359.38;;;18.99;100.00
36726;BME280;44936;52.086;5.150;2023-07-13T10:17:57;102353.25;;;18.88;100.00
36726;BME280;44936;52.086;5.150;2023-07-13T10:20:24;102372.78;;;18.85;100.00
36726;BME280;44936;52.086;5.150;2023-07-13T10:22:59;102385.28;;;18.62;100.00
36726;BME280;44936;52.086;5.150;2023-07-13T10:25:28;102393.38;;;18.47;100.00
36726;BME280;44936;52.086;5.150;2023-07-13T10:28:05;102411.88;;;18.62;100.00
36726;BME280;44936;52.086;5.150;2023-07-13T10:30:39;102409.22;;;18.60;100.00
36726;BME280;44936;52.086;5.150;2023-07-13T10:33:10;102420.75;;;18.68;100.00
36726;BME280;44936;52.086;5.150;2023-07-13T10:35:41;102389.75;;;18.67;100.00
36726;BME280;44936;52.086;5.150;2023-07-13T10:38:12;102389.66;;;18.80;100.00
36726;BME280;44936;52.086;5.150;2023-07-13T10:40:40;102408.09;;;19.06;100.00
36726;BME280;44936;52.086;5.150;2023-07-13T10:43:31;102377.81;;;19.22;100.00
36726;BME280;44936;52.086;5.150;2023-07-13T10:46:00;102391.78;;;19.48;100.00
36726;BME280;44936;52.086;5.150;2023-07-13T10:48:27;102384.66;;;19.53;100.00
36726;BME280;44936;52.086;5.150;2023-07-13T10:50:55;102406.59;;;19.77;100.00
36726;BME280;44936;52.086;5.150;2023-07-13T10:56:01;102405.75;;;19.75;100.00
36726;BME280;44936;52.086;5.150;2023-07-13T10:58:40;102412.75;;;19.84;100.00
36726;BME280;44936;52.086;5.150;2023-07-13T11:01:13;102392.28;;;19.90;100.00
36726;BME280;44936;52.086;5.150;2023-07-13T11:04:01;102400.19;;;19.96;100.00
36726;BME280;44936;52.086;5.150;2023-07-13T11:08:58;102429.47;;;19.99;100.00
36726;BME280;44936;52.086;5.150;2023-07-13T11:14:00;102459.88;;;19.75;100.00
36726;BME280;44936;52.086;5.150;2023-07-13T11:16:41;102406.97;;;19.33;100.00
36726;BME280;44936;52.086;5.150;2023-07-13T11:27:41;102397.69;;;18.63;100.00
36726;BME280;44936;52.086;5.150;2023-07-13T11:30:23;102417.19;;;18.74;100.00
36726;BME280;44936;52.086;5.150;2023-07-13T11:32:51;102422.47;;;18.77;100.00
36726;BME280;44936;52.086;5.150;2023-07-13T11:35:25;102429.56;;;18.77;100.00
36726;BME280;44936;52.086;5.150;2023-07-13T11:37:51;102425.09;;;18.80;100.00
36726;BME280;44936;52.086;5.150;2023-07-13T11:40:26;102422.44;;;18.83;100.00
36726;BME280;44936;52.086;5.150;2023-07-13T11:42:59;102424.09;;;19.00;100.00
36726;BME280;44936;52.086;5.150;2023-07-13T11:45:25;102417.88;;;18.99;100.00
36726;BME280;44936;52.086;5.150;2023-07-13T11:47:51;102423.97;;;19.16;100.00
36726;BME280;44936;52.086;5.150;2023-07-13T11:50:21;102382.34;;;19.08;100.00
36726;BME280;44936;52.086;5.150;2023-07-13T11:52:49;102401.56;;;19.45;100.00
36726;BME280;44936;52.086;5.150;2023-07-13T11:55:18;102407.59;;;19.67;100.00
36726;BME280;44936;52.086;5.150;2023-07-13T11:58:01;102401.16;;;19.91;100.00
36726;BME280;44936;52.086;5.150;2023-07-13T12:00:30;102352.44;;;19.78;100.00
36726;BME280;44936;52.086;5.150;2023-07-13T12:02:59;102380.72;;;19.91;100.00
36726;BME280;44936;52.086;5.150;2023-07-13T12:05:27;102379.78;;;19.97;100.00
36726;BME280;44936;52.086;5.150;2023-07-13T12:07:53;102367.44;;;19.90;100.00
36726;BME280;44936;52.086;5.150;2023-07-13T12:10:29;102395.59;;;20.11;100.00
36726;BME280;44936;52.086;5.150;2023-07-13T12:12:56;102393.56;;;20.32;100.00
36726;BME280;44936;52.086;5.150;2023-07-13T12:15:23;102388.06;;;20.46;100.00
36726;BME280;44936;52.086;5.150;2023-07-13T12:17:52;102341.00;;;20.45;100.00
36726;BME280;44936;52.086;5.150;2023-07-13T12:20:24;102386.13;;;20.59;100.00
36726;BME280;44936;52.086;5.150;2023-07-13T12:22:51;102360.16;;;20.72;100.00
36726;BME280;44936;52.086;5.150;2023-07-13T12:25:18;102361.75;;;20.83;100.00
36726;BME280;44936;52.086;5.150;2023-07-13T12:27:48;102382.81;;;21.00;100.00
36726;BME280;44936;52.086;5.150;2023-07-13T12:30:32;102354.28;;;21.05;100.00
36726;BME280;44936;52.086;5.150;2023-07-13T12:33:11;102341.81;;;21.07;100.00
36726;BME280;44936;52.086;5.150;2023-07-13T12:35:51;102339.03;;;21.13;100.00
36726;BME280;44936;52.086;5.150;2023-07-13T12:38:18;102337.22;;;21.15;100.00
36726;BME280;44936;52.086;5.150;2023-07-13T12:40:49;102336.31;;;21.16;100.00
36726;BME280;44936;52.086;5.150;2023-07-13T12:43:16;102329.22;;;21.15;100.00
36726;BME280;44936;52.086;5.150;2023-07-13T12:46:04;102312.41;;;21.09;100.00
36726;BME280;44936;52.086;5.150;2023-07-13T12:48:38;102340.56;;;21.28;100.00
36726;BME280;44936;52.086;5.150;2023-07-13T12:51:04;102344.22;;;21.23;100.00
36726;BME280;44936;52.086;5.150;2023-07-13T12:53:30;102318.09;;;21.41;100.00
36726;BME280;44936;52.086;5.150;2023-07-13T12:56:02;102280.91;;;21.32;100.00
36726;BME280;44936;52.086;5.150;2023-07-13T12:58:36;102311.75;;;21.48;100.00
36726;BME280;44936;52.086;5.150;2023-07-13T13:01:03;102301.09;;;21.45;100.00
36726;BME280;44936;52.086;5.150;2023-07-13T13:03:36;102287.75;;;21.47;100.00
36726;BME280;44936;52.086;5.150;2023-07-13T13:06:20;102290.31;;;21.52;100.00
36726;BME280;44936;52.086;5.150;2023-07-13T13:08:54;102294.94;;;21.43;100.00
36726;BME280;44936;52.086;5.150;2023-07-13T13:11:21;102270.03;;;21.43;100.00
36726;BME280;44936;52.086;5.150;2023-07-13T13:13:48;102277.03;;;21.48;100.00
36726;BME280;44936;52.086;5.150;2023-07-13T13:16:20;102305.31;;;21.59;100.00
36726;BME280;44936;52.086;5.150;2023-07-13T13:18:47;102294.41;;;21.69;100.00
36726;BME280;44936;52.086;5.150;2023-07-13T13:21:13;102298.81;;;21.72;100.00
36726;BME280;44936;52.086;5.150;2023-07-13T13:23:38;102303.09;;;21.81;100.00
36726;BME280;44936;52.086;5.150;2023-07-13T13:26:09;102317.16;;;21.89;100.00
36726;BME280;44936;52.086;5.150;2023-07-13T13:28:35;102281.09;;;21.68;100.00
36726;BME280;44936;52.086;5.150;2023-07-13T13:31:00;102291.09;;;21.58;100.00
36726;BME280;44936;52.086;5.150;2023-07-13T13:33:26;102292.72;;;21.65;100.00
36726;BME280;44936;52.086;5.150;2023-07-13T13:35:51;102283.00;;;21.61;100.00